sensor_id;sensor_type;location;lat;lon;timestamp;P1;durP1;ratioP1;P2;durP2;ratioP2
74577;SDS011;63173;49.086;33.418;2023-02-15T00:00:15;1.60;;;0.88;;
74577;SDS011;63173;49.086;33.418;2023-02-15T00:02:41;3.63;;;0.90;;
74577;SDS011;63173;49.086;33.418;2023-02-15T00:05:07;3.45;;;0.82;;
74577;SDS011;63173;49.086;33.418;2023-02-15T00:07:33;2.15;;;0.80;;
74577;SDS011;63173;49.086;33.418;2023-02-15T00:09:58;3.03;;;1.15;;
74577;SDS011;63173;49.086;33.418;2023-02-15T00:12:24;3.85;;;1.33;;
74577;SDS011;63173;49.086;33.418;2023-02-15T00:14:49;2.97;;;1.10;;
74577;SDS011;63173;49.086;33.418;2023-02-15T00:17:15;2.05;;;0.73;;
74577;SDS011;63173;49.086;33.418;2023-02-15T00:19:40;4.82;;;1.30;;
74577;SDS011;63173;49.086;33.418;2023-02-15T00:22:05;3.05;;;0.93;;
74577;SDS011;63173;49.086;33.418;2023-02-15T00:24:31;6.15;;;1.00;;
74577;SDS011;63173;49.086;33.418;2023-02-15T00:26:57;2.70;;;1.10;;
74577;SDS011;63173;49.086;33.418;2023-02-15T00:29:23;2.15;;;0.98;;
74577;SDS011;63173;49.086;33.418;2023-02-15T00:31:48;1.90;;;1.00;;
74577;SDS011;63173;49.086;33.418;2023-02-15T00:34:18;1.20;;;0.77;;
74577;SDS011;63173;49.086;33.418;2023-02-15T00:36:46;3.03;;;1.30;;
74577;SDS011;63173;49.086;33.418;2023-02-15T00:39:11;2.50;;;1.23;;
74577;SDS011;63173;49.086;33.418;2023-02-15T00:41:38;2.65;;;1.27;;
74577;SDS011;63173;49.086;33.418;2023-02-15T00:44:04;2.53;;;1.00;;
74577;SDS011;63173;49.086;33.418;2023-02-15T00:46:30;2.05;;;1.00;;
74577;SDS011;63173;49.086;33.418;2023-02-15T00:48:55;2.20;;;1.10;;
74577;SDS011;63173;49.086;33.418;2023-02-15T00:51:21;4.28;;;1.30;;
74577;SDS011;63173;49.086;33.418;2023-02-15T00:53:47;2.08;;;1.13;;
74577;SDS011;63173;49.086;33.418;2023-02-15T00:56:12;1.73;;;0.98;;
74577;SDS011;63173;49.086;33.418;2023-02-15T00:58:37;1.75;;;0.90;;
74577;SDS011;63173;49.086;33.418;2023-02-15T01:01:04;3.22;;;0.85;;
74577;SDS011;63173;49.086;33.418;2023-02-15T01:03:34;1.40;;;0.80;;
74577;SDS011;63173;49.086;33.418;2023-02-15T01:06:00;1.88;;;0.75;;
74577;SDS011;63173;49.086;33.418;2023-02-15T01:08:26;1.92;;;0.90;;
74577;SDS011;63173;49.086;33.418;2023-02-15T01:10:52;2.28;;;0.95;;
74577;SDS011;63173;49.086;33.418;2023-02-15T01:13:18;2.03;;;0.90;;
74577;SDS011;63173;49.086;33.418;2023-02-15T01:15:43;1.88;;;0.90;;
74577;SDS011;63173;49.086;33.418;2023-02-15T01:18:10;4.28;;;1.05;;
74577;SDS011;63173;49.086;33.418;2023-02-15T01:20:37;1.75;;;0.90;;
74577;SDS011;63173;49.086;33.418;2023-02-15T01:23:06;2.75;;;1.10;;
74577;SDS011;63173;49.086;33.418;2023-02-15T01:25:32;1.83;;;1.00;;
74577;SDS011;63173;49.086;33.418;2023-02-15T01:27:59;3.22;;;1.20;;
74577;SDS011;63173;49.086;33.418;2023-02-15T01:30:25;4.72;;;1.20;;
74577;SDS011;63173;49.086;33.418;2023-02-15T01:32:50;2.53;;;1.10;;
74577;SDS011;63173;49.086;33.418;2023-02-15T01:35:16;2.38;;;1.10;;
74577;SDS011;63173;49.086;33.418;2023-02-15T01:37:41;1.98;;;1.08;;
74577;SDS011;63173;49.086;33.418;2023-02-15T01:40:08;2.22;;;0.70;;
74577;SDS011;63173;49.086;33.418;2023-02-15T01:42:37;1.90;;;0.90;;
74577;SDS011;63173;49.086;33.418;2023-02-15T01:45:04;2.22;;;1.08;;
74577;SDS011;63173;49.086;33.418;2023-02-15T01:48:14;1.13;;;0.75;;
74577;SDS011;63173;49.086;33.418;2023-02-15T01:50:50;1.83;;;1.05;;
74577;SDS011;63173;49.086;33.418;2023-02-15T01:53:37;1.85;;;1.00;;
74577;SDS011;63173;49.086;33.418;2023-02-15T01:56:09;2.22;;;1.17;;
74577;SDS011;63173;49.086;33.418;2023-02-15T01:58:42;2.47;;;0.93;;
74577;SDS011;63173;49.086;33.418;2023-02-15T02:01:08;2.35;;;0.88;;
74577;SDS011;63173;49.086;33.418;2023-02-15T02:06:14;2.00;;;0.90;;
74577;SDS011;63173;49.086;33.418;2023-02-15T02:08:40;2.42;;;1.08;;
74577;SDS011;63173;49.086;33.418;2023-02-15T02:11:12;5.05;;;0.93;;
74577;SDS011;63173;49.086;33.418;2023-02-15T02:13:39;4.05;;;1.15;;
74577;SDS011;63173;49.086;33.418;2023-02-15T02:16:15;1.77;;;0.70;;
74577;SDS011;63173;49.086;33.418;2023-02-15T02:35:43;2.35;;;1.20;;
74577;SDS011;63173;49.086;33.418;2023-02-15T02:43:37;3.33;;;1.10;;
74577;SDS011;63173;49.086;33.418;2023-02-15T02:46:14;2.92;;;1.02;;
74577;SDS011;63173;49.086;33.418;2023-02-15T02:48:45;2.70;;;0.80;;
74577;SDS011;63173;49.086;33.418;2023-02-15T02:51:13;2.55;;;1.00;;
74577;SDS011;63173;49.086;33.418;2023-02-15T02:53:46;1.17;;;0.63;;
74577;SDS011;63173;49.086;33.418;2023-02-15T02:56:26;1.55;;;0.90;;
74577;SDS011;63173;49.086;33.418;2023-02-15T02:58:56;2.38;;;1.15;;
74577;SDS011;63173;49.086;33.418;2023-02-15T03:01:31;2.45;;;1.30;;
74577;SDS011;63173;49.086;33.418;2023-02-15T03:04:03;4.47;;;1.60;;
74577;SDS011;63173;49.086;33.418;2023-02-15T03:09:24;2.13;;;1.08;;
74577;SDS011;63173;49.086;33.418;2023-02-15T03:11:59;3.10;;;1.27;;
74577;SDS011;63173;49.086;33.418;2023-02-15T03:14:28;1.52;;;0.98;;
74577;SDS011;63173;49.086;33.418;2023-02-15T03:16:54;1.65;;;1.02;;
74577;SDS011;63173;49.086;33.418;2023-02-15T03:19:22;7.60;;;0.95;;
74577;SDS011;63173;49.086;33.418;2023-02-15T03:21:54;2.75;;;1.13;;
74577;SDS011;63173;49.086;33.418;2023-02-15T03:24:29;3.50;;;1.15;;
74577;SDS011;63173;49.086;33.418;2023-02-15T03:27:18;3.08;;;1.13;;
74577;SDS011;63173;49.086;33.418;2023-02-15T03:29:57;1.15;;;0.80;;
74577;SDS011;63173;49.086;33.418;2023-02-15T03:32:24;2.17;;;1.00;;
74577;SDS011;63173;49.086;33.418;2023-02-15T03:34:52;1.45;;;0.80;;
74577;SDS011;63173;49.086;33.418;2023-02-15T03:37:22;2.65;;;0.95;;
74577;SDS011;63173;49.086;33.418;2023-02-15T03:43:19;2.65;;;1.20;;
74577;SDS011;63173;49.086;33.418;2023-02-15T03:45:51;1.65;;;0.90;;
74577;SDS011;63173;49.086;33.418;2023-02-15T03:48:29;2.30;;;0.80;;
74577;SDS011;63173;49.086;33.418;2023-02-15T03:51:00;2.38;;;0.98;;
74577;SDS011;63173;49.086;33.418;2023-02-15T03:53:47;1.80;;;1.00;;
74577;SDS011;63173;49.086;33.418;2023-02-15T03:56:15;3.22;;;1.20;;
74577;SDS011;63173;49.086;33.418;2023-02-15T03:58:40;5.72;;;1.10;;
74577;SDS011;63173;49.086;33.418;2023-02-15T04:01:58;4.07;;;0.85;;
74577;SDS011;63173;49.086;33.418;2023-02-15T04:04:37;1.67;;;0.77;;
74577;SDS011;63173;49.086;33.418;2023-02-15T04:07:07;4.00;;;1.30;;
74577;SDS011;63173;49.086;33.418;2023-02-15T04:09:33;1.65;;;0.82;;
74577;SDS011;63173;49.086;33.418;2023-02-15T04:12:17;1.88;;;1.00;;
74577;SDS011;63173;49.086;33.418;2023-02-15T04:14:43;2.70;;;1.25;;
74577;SDS011;63173;49.086;33.418;2023-02-15T04:17:27;3.10;;;1.17;;
74577;SDS011;63173;49.086;33.418;2023-02-15T04:19:53;4.07;;;1.85;;
74577;SDS011;63173;49.086;33.418;2023-02-15T04:22:36;6.65;;;2.45;;
74577;SDS011;63173;49.086;33.418;2023-02-15T04:25:20;4.60;;;2.00;;
74577;SDS011;63173;49.086;33.418;2023-02-15T04:27:49;2.78;;;1.52;;
74577;SDS011;63173;49.086;33.418;2023-02-15T04:30:17;4.32;;;1.30;;
74577;SDS011;63173;49.086;33.418;2023-02-15T04:32:43;2.17;;;1.05;;
74577;SDS011;63173;49.086;33.418;2023-02-15T04:35:09;4.18;;;1.25;;
74577;SDS011;63173;49.086;33.418;2023-02-15T04:37:36;3.90;;;1.70;;
74577;SDS011;63173;49.086;33.418;2023-02-15T04:40:03;2.58;;;1.23;;
74577;SDS011;63173;49.086;33.418;2023-02-15T04:42:29;2.38;;;1.38;;
74577;SDS011;63173;49.086;33.418;2023-02-15T04:44:54;1.77;;;0.85;;
74577;SDS011;63173;49.086;33.418;2023-02-15T04:47:20;2.58;;;1.00;;
74577;SDS011;63173;49.086;33.418;2023-02-15T04:49:46;3.33;;;1.08;;
74577;SDS011;63173;49.086;33.418;2023-02-15T04:52:11;3.08;;;1.48;;
74577;SDS011;63173;49.086;33.418;2023-02-15T04:54:37;3.30;;;1.20;;
74577;SDS011;63173;49.086;33.418;2023-02-15T04:57:03;1.95;;;0.98;;
74577;SDS011;63173;49.086;33.418;2023-02-15T04:59:29;2.83;;;1.30;;
74577;SDS011;63173;49.086;33.418;2023-02-15T05:01:54;5.28;;;1.70;;
74577;SDS011;63173;49.086;33.418;2023-02-15T05:04:20;3.90;;;1.35;;
74577;SDS011;63173;49.086;33.418;2023-02-15T05:06:45;2.63;;;1.08;;
74577;SDS011;63173;49.086;33.418;2023-02-15T05:09:11;2.20;;;1.00;;
74577;SDS011;63173;49.086;33.418;2023-02-15T05:11:37;2.25;;;1.08;;
74577;SDS011;63173;49.086;33.418;2023-02-15T05:14:03;5.30;;;0.95;;
74577;SDS011;63173;49.086;33.418;2023-02-15T05:16:29;3.85;;;1.23;;
74577;SDS011;63173;49.086;33.418;2023-02-15T05:18:54;2.92;;;1.20;;
74577;SDS011;63173;49.086;33.418;2023-02-15T05:21:20;2.97;;;1.30;;
74577;SDS011;63173;49.086;33.418;2023-02-15T05:23:45;4.72;;;1.45;;
74577;SDS011;63173;49.086;33.418;2023-02-15T05:26:11;1.95;;;1.13;;
74577;SDS011;63173;49.086;33.418;2023-02-15T05:28:58;4.07;;;1.20;;
74577;SDS011;63173;49.086;33.418;2023-02-15T05:31:23;2.25;;;1.27;;
74577;SDS011;63173;49.086;33.418;2023-02-15T05:33:49;3.15;;;1.40;;
74577;SDS011;63173;49.086;33.418;2023-02-15T05:36:14;2.15;;;0.93;;
74577;SDS011;63173;49.086;33.418;2023-02-15T05:38:40;3.67;;;1.52;;
74577;SDS011;63173;49.086;33.418;2023-02-15T05:41:06;2.30;;;0.90;;
74577;SDS011;63173;49.086;33.418;2023-02-15T05:43:32;2.28;;;1.00;;
74577;SDS011;63173;49.086;33.418;2023-02-15T05:45:57;2.75;;;0.95;;
74577;SDS011;63173;49.086;33.418;2023-02-15T05:48:24;4.50;;;1.27;;
74577;SDS011;63173;49.086;33.418;2023-02-15T05:51:01;2.60;;;0.95;;
74577;SDS011;63173;49.086;33.418;2023-02-15T05:53:28;3.08;;;1.00;;
74577;SDS011;63173;49.086;33.418;2023-02-15T05:55:54;1.73;;;0.88;;
74577;SDS011;63173;49.086;33.418;2023-02-15T05:58:24;3.38;;;0.90;;
74577;SDS011;63173;49.086;33.418;2023-02-15T06:00:53;3.03;;;1.05;;
74577;SDS011;63173;49.086;33.418;2023-02-15T06:03:18;1.25;;;0.63;;
74577;SDS011;63173;49.086;33.418;2023-02-15T06:05:44;5.03;;;1.13;;
74577;SDS011;63173;49.086;33.418;2023-02-15T06:08:09;4.38;;;0.98;;
74577;SDS011;63173;49.086;33.418;2023-02-15T06:10:34;4.30;;;1.30;;
74577;SDS011;63173;49.086;33.418;2023-02-15T06:13:00;1.80;;;0.82;;
74577;SDS011;63173;49.086;33.418;2023-02-15T06:15:26;3.92;;;1.20;;
74577;SDS011;63173;49.086;33.418;2023-02-15T06:17:51;2.00;;;1.08;;
74577;SDS011;63173;49.086;33.418;2023-02-15T06:20:16;7.07;;;2.03;;
74577;SDS011;63173;49.086;33.418;2023-02-15T06:22:42;2.65;;;0.70;;
74577;SDS011;63173;49.086;33.418;2023-02-15T06:25:08;2.95;;;1.05;;
74577;SDS011;63173;49.086;33.418;2023-02-15T06:27:36;2.95;;;1.25;;
74577;SDS011;63173;49.086;33.418;2023-02-15T06:30:02;4.22;;;1.60;;
74577;SDS011;63173;49.086;33.418;2023-02-15T06:32:28;5.05;;;1.73;;
74577;SDS011;63173;49.086;33.418;2023-02-15T06:34:54;3.13;;;1.50;;
74577;SDS011;63173;49.086;33.418;2023-02-15T06:37:19;3.63;;;1.35;;
74577;SDS011;63173;49.086;33.418;2023-02-15T06:39:44;4.18;;;1.42;;
74577;SDS011;63173;49.086;33.418;2023-02-15T06:42:10;3.00;;;1.55;;
74577;SDS011;63173;49.086;33.418;2023-02-15T06:44:35;5.97;;;1.73;;
74577;SDS011;63173;49.086;33.418;2023-02-15T06:47:00;4.30;;;1.50;;
74577;SDS011;63173;49.086;33.418;2023-02-15T06:49:26;11.05;;;2.88;;
74577;SDS011;63173;49.086;33.418;2023-02-15T06:51:51;5.30;;;1.55;;
74577;SDS011;63173;49.086;33.418;2023-02-15T06:54:17;4.97;;;1.58;;
74577;SDS011;63173;49.086;33.418;2023-02-15T06:56:42;4.70;;;1.98;;
74577;SDS011;63173;49.086;33.418;2023-02-15T06:59:08;5.75;;;1.70;;
74577;SDS011;63173;49.086;33.418;2023-02-15T07:01:34;5.68;;;2.25;;
74577;SDS011;63173;49.086;33.418;2023-02-15T07:04:02;4.82;;;1.38;;
74577;SDS011;63173;49.086;33.418;2023-02-15T07:06:30;3.75;;;1.33;;
74577;SDS011;63173;49.086;33.418;2023-02-15T07:08:58;4.55;;;1.85;;
74577;SDS011;63173;49.086;33.418;2023-02-15T07:11:23;4.80;;;1.70;;
74577;SDS011;63173;49.086;33.418;2023-02-15T07:14:08;3.28;;;1.50;;
74577;SDS011;63173;49.086;33.418;2023-02-15T07:16:33;2.75;;;1.25;;
74577;SDS011;63173;49.086;33.418;2023-02-15T07:18:59;6.50;;;1.40;;
74577;SDS011;63173;49.086;33.418;2023-02-15T07:21:24;4.10;;;1.30;;
74577;SDS011;63173;49.086;33.418;2023-02-15T07:23:49;2.63;;;1.23;;
74577;SDS011;63173;49.086;33.418;2023-02-15T07:26:15;2.60;;;1.10;;
74577;SDS011;63173;49.086;33.418;2023-02-15T07:28:40;2.85;;;1.02;;
74577;SDS011;63173;49.086;33.418;2023-02-15T07:31:06;4.07;;;1.40;;
74577;SDS011;63173;49.086;33.418;2023-02-15T07:33:32;2.15;;;0.75;;
74577;SDS011;63173;49.086;33.418;2023-02-15T07:35:59;4.32;;;2.03;;
74577;SDS011;63173;49.086;33.418;2023-02-15T07:38:27;5.68;;;1.77;;
74577;SDS011;63173;49.086;33.418;2023-02-15T07:40:59;11.52;;;1.83;;
74577;SDS011;63173;49.086;33.418;2023-02-15T07:43:25;4.55;;;1.60;;
74577;SDS011;63173;49.086;33.418;2023-02-15T07:45:51;4.03;;;1.65;;
74577;SDS011;63173;49.086;33.418;2023-02-15T07:48:17;4.32;;;1.23;;
74577;SDS011;63173;49.086;33.418;2023-02-15T07:50:42;4.15;;;1.02;;
74577;SDS011;63173;49.086;33.418;2023-02-15T07:53:08;3.20;;;1.02;;
74577;SDS011;63173;49.086;33.418;2023-02-15T07:55:33;2.20;;;0.85;;
74577;SDS011;63173;49.086;33.418;2023-02-15T07:57:59;4.13;;;1.48;;
74577;SDS011;63173;49.086;33.418;2023-02-15T08:00:24;2.47;;;1.30;;
74577;SDS011;63173;49.086;33.418;2023-02-15T08:02:50;4.38;;;1.58;;
74577;SDS011;63173;49.086;33.418;2023-02-15T08:05:38;1.98;;;1.00;;
74577;SDS011;63173;49.086;33.418;2023-02-15T08:08:05;4.40;;;1.85;;
74577;SDS011;63173;49.086;33.418;2023-02-15T08:10:31;1.95;;;0.77;;
74577;SDS011;63173;49.086;33.418;2023-02-15T08:13:15;2.90;;;0.98;;
74577;SDS011;63173;49.086;33.418;2023-02-15T08:15:47;2.92;;;1.17;;
74577;SDS011;63173;49.086;33.418;2023-02-15T08:18:16;6.07;;;0.90;;
74577;SDS011;63173;49.086;33.418;2023-02-15T08:20:41;1.65;;;0.60;;
74577;SDS011;63173;49.086;33.418;2023-02-15T08:23:07;1.35;;;0.82;;
74577;SDS011;63173;49.086;33.418;2023-02-15T08:25:32;4.20;;;1.02;;
74577;SDS011;63173;49.086;33.418;2023-02-15T08:27:58;2.63;;;1.02;;
74577;SDS011;63173;49.086;33.418;2023-02-15T08:30:23;5.63;;;1.30;;
74577;SDS011;63173;49.086;33.418;2023-02-15T08:32:49;2.83;;;1.45;;
74577;SDS011;63173;49.086;33.418;2023-02-15T08:35:14;4.28;;;1.77;;
74577;SDS011;63173;49.086;33.418;2023-02-15T08:37:40;3.45;;;1.15;;
74577;SDS011;63173;49.086;33.418;2023-02-15T08:40:05;2.38;;;1.08;;
74577;SDS011;63173;49.086;33.418;2023-02-15T08:42:34;2.13;;;0.98;;
74577;SDS011;63173;49.086;33.418;2023-02-15T08:45:00;1.92;;;0.73;;
74577;SDS011;63173;49.086;33.418;2023-02-15T08:47:25;2.35;;;0.98;;
74577;SDS011;63173;49.086;33.418;2023-02-15T08:49:51;1.63;;;0.90;;
74577;SDS011;63173;49.086;33.418;2023-02-15T08:52:17;1.38;;;0.60;;
74577;SDS011;63173;49.086;33.418;2023-02-15T08:54:42;2.30;;;0.60;;
74577;SDS011;63173;49.086;33.418;2023-02-15T08:57:08;1.75;;;0.65;;
74577;SDS011;63173;49.086;33.418;2023-02-15T08:59:35;1.80;;;0.80;;
74577;SDS011;63173;49.086;33.418;2023-02-15T09:02:00;1.48;;;0.80;;
74577;SDS011;63173;49.086;33.418;2023-02-15T09:04:26;1.88;;;1.08;;
74577;SDS011;63173;49.086;33.418;2023-02-15T09:06:51;2.25;;;1.10;;
74577;SDS011;63173;49.086;33.418;2023-02-15T09:09:17;1.80;;;0.80;;
74577;SDS011;63173;49.086;33.418;2023-02-15T09:11:44;5.45;;;0.90;;
74577;SDS011;63173;49.086;33.418;2023-02-15T09:14:12;2.03;;;0.93;;
74577;SDS011;63173;49.086;33.418;2023-02-15T09:16:39;5.45;;;2.20;;
74577;SDS011;63173;49.086;33.418;2023-02-15T09:19:06;2.10;;;0.77;;
74577;SDS011;63173;49.086;33.418;2023-02-15T09:21:33;1.67;;;0.82;;
74577;SDS011;63173;49.086;33.418;2023-02-15T09:24:03;5.18;;;1.08;;
74577;SDS011;63173;49.086;33.418;2023-02-15T09:26:31;2.65;;;0.98;;
74577;SDS011;63173;49.086;33.418;2023-02-15T09:31:27;3.53;;;1.20;;
74577;SDS011;63173;49.086;33.418;2023-02-15T09:33:54;1.08;;;0.68;;
74577;SDS011;63173;49.086;33.418;2023-02-15T09:36:22;2.30;;;0.90;;
74577;SDS011;63173;49.086;33.418;2023-02-15T09:39:50;2.45;;;0.52;;
74577;SDS011;63173;49.086;33.418;2023-02-15T10:03:39;1.92;;;0.80;;
74577;SDS011;63173;49.086;33.418;2023-02-15T10:08:55;4.45;;;0.80;;
74577;SDS011;63173;49.086;33.418;2023-02-15T10:11:40;1.88;;;0.70;;
74577;SDS011;63173;49.086;33.418;2023-02-15T10:19:37;2.08;;;0.90;;
74577;SDS011;63173;49.086;33.418;2023-02-15T10:27:58;1.92;;;0.70;;
74577;SDS011;63173;49.086;33.418;2023-02-15T10:30:40;1.00;;;0.50;;
74577;SDS011;63173;49.086;33.418;2023-02-15T10:33:14;1.85;;;0.65;;
74577;SDS011;63173;49.086;33.418;2023-02-15T10:42:46;2.15;;;0.95;;
74577;SDS011;63173;49.086;33.418;2023-02-15T10:48:16;2.42;;;0.93;;
74577;SDS011;63173;49.086;33.418;2023-02-15T10:51:12;1.25;;;0.80;;
74577;SDS011;63173;49.086;33.418;2023-02-15T11:01:59;2.97;;;0.88;;
74577;SDS011;63173;49.086;33.418;2023-02-15T11:09:50;3.25;;;0.68;;
74577;SDS011;63173;49.086;33.418;2023-02-15T11:12:22;3.83;;;0.90;;
74577;SDS011;63173;49.086;33.418;2023-02-15T11:15:00;2.15;;;0.90;;
74577;SDS011;63173;49.086;33.418;2023-02-15T11:17:33;1.63;;;0.60;;
74577;SDS011;63173;49.086;33.418;2023-02-15T11:22:47;1.48;;;0.30;;
74577;SDS011;63173;49.086;33.418;2023-02-15T11:25:17;3.45;;;0.73;;
74577;SDS011;63173;49.086;33.418;2023-02-15T11:27:46;4.88;;;0.85;;
74577;SDS011;63173;49.086;33.418;2023-02-15T11:30:15;4.07;;;0.70;;
74577;SDS011;63173;49.086;33.418;2023-02-15T11:32:44;3.17;;;0.75;;
74577;SDS011;63173;49.086;33.418;2023-02-15T11:37:45;2.63;;;0.70;;
74577;SDS011;63173;49.086;33.418;2023-02-15T11:40:24;4.43;;;0.68;;
74577;SDS011;63173;49.086;33.418;2023-02-15T11:42:51;1.58;;;0.52;;
74577;SDS011;63173;49.086;33.418;2023-02-15T11:45:27;1.60;;;0.85;;
74577;SDS011;63173;49.086;33.418;2023-02-15T11:47:53;2.45;;;0.90;;
74577;SDS011;63173;49.086;33.418;2023-02-15T11:50:22;2.17;;;1.00;;
74577;SDS011;63173;49.086;33.418;2023-02-15T11:52:50;3.92;;;1.23;;
74577;SDS011;63173;49.086;33.418;2023-02-15T11:55:19;2.50;;;0.90;;
74577;SDS011;63173;49.086;33.418;2023-02-15T11:57:54;1.65;;;0.52;;
74577;SDS011;63173;49.086;33.418;2023-02-15T12:00:29;2.65;;;0.90;;
74577;SDS011;63173;49.086;33.418;2023-02-15T12:03:00;2.50;;;0.68;;
74577;SDS011;63173;49.086;33.418;2023-02-15T12:05:32;4.15;;;0.70;;
74577;SDS011;63173;49.086;33.418;2023-02-15T12:08:01;2.50;;;0.60;;
74577;SDS011;63173;49.086;33.418;2023-02-15T12:10:40;9.35;;;1.13;;
74577;SDS011;63173;49.086;33.418;2023-02-15T12:13:18;1.50;;;0.70;;
74577;SDS011;63173;49.086;33.418;2023-02-15T12:15:46;3.13;;;0.63;;
74577;SDS011;63173;49.086;33.418;2023-02-15T12:21:02;5.00;;;0.70;;
74577;SDS011;63173;49.086;33.418;2023-02-15T12:23:32;5.47;;;0.70;;
74577;SDS011;63173;49.086;33.418;2023-02-15T12:25:58;3.20;;;0.90;;
74577;SDS011;63173;49.086;33.418;2023-02-15T12:30:50;2.05;;;0.57;;
74577;SDS011;63173;49.086;33.418;2023-02-15T12:33:34;2.28;;;0.82;;
74577;SDS011;63173;49.086;33.418;2023-02-15T12:36:16;2.90;;;1.17;;
74577;SDS011;63173;49.086;33.418;2023-02-15T12:41:31;1.95;;;0.63;;
74577;SDS011;63173;49.086;33.418;2023-02-15T12:44:05;1.67;;;0.68;;
74577;SDS011;63173;49.086;33.418;2023-02-15T12:46:40;2.17;;;0.80;;
74577;SDS011;63173;49.086;33.418;2023-02-15T12:49:06;4.05;;;0.68;;
74577;SDS011;63173;49.086;33.418;2023-02-15T12:51:46;1.40;;;0.57;;
74577;SDS011;63173;49.086;33.418;2023-02-15T12:54:16;2.88;;;0.60;;
74577;SDS011;63173;49.086;33.418;2023-02-15T12:56:51;1.58;;;0.80;;
74577;SDS011;63173;49.086;33.418;2023-02-15T12:59:16;2.88;;;0.80;;
74577;SDS011;63173;49.086;33.418;2023-02-15T13:01:46;2.22;;;0.95;;
74577;SDS011;63173;49.086;33.418;2023-02-15T13:04:33;2.45;;;0.80;;
74577;SDS011;63173;49.086;33.418;2023-02-15T13:07:00;2.60;;;0.75;;
74577;SDS011;63173;49.086;33.418;2023-02-15T13:12:09;11.77;;;1.27;;
74577;SDS011;63173;49.086;33.418;2023-02-15T13:14:50;1.88;;;0.88;;
74577;SDS011;63173;49.086;33.418;2023-02-15T13:17:18;5.25;;;1.48;;
74577;SDS011;63173;49.086;33.418;2023-02-15T13:19:52;1.52;;;0.70;;
74577;SDS011;63173;49.086;33.418;2023-02-15T13:25:19;2.33;;;0.80;;
74577;SDS011;63173;49.086;33.418;2023-02-15T13:30:37;11.80;;;1.13;;
74577;SDS011;63173;49.086;33.418;2023-02-15T13:33:19;4.82;;;1.60;;
74577;SDS011;63173;49.086;33.418;2023-02-15T13:35:56;2.47;;;1.00;;
74577;SDS011;63173;49.086;33.418;2023-02-15T13:41:32;4.80;;;1.33;;
74577;SDS011;63173;49.086;33.418;2023-02-15T13:44:12;4.25;;;1.52;;
74577;SDS011;63173;49.086;33.418;2023-02-15T14:01:39;3.95;;;1.20;;
74577;SDS011;63173;49.086;33.418;2023-02-15T14:07:16;4.82;;;1.25;;
74577;SDS011;63173;49.086;33.418;2023-02-15T14:31:25;4.60;;;1.92;;
74577;SDS011;63173;49.086;33.418;2023-02-15T14:33:56;6.88;;;2.03;;
74577;SDS011;63173;49.086;33.418;2023-02-15T14:36:22;2.47;;;1.13;;
74577;SDS011;63173;49.086;33.418;2023-02-15T14:42:10;5.45;;;1.63;;
74577;SDS011;63173;49.086;33.418;2023-02-15T14:44:40;3.85;;;1.60;;
74577;SDS011;63173;49.086;33.418;2023-02-15T14:47:22;5.15;;;1.88;;
74577;SDS011;63173;49.086;33.418;2023-02-15T14:49:54;4.43;;;1.77;;
74577;SDS011;63173;49.086;33.418;2023-02-15T14:52:20;5.10;;;1.60;;
74577;SDS011;63173;49.086;33.418;2023-02-15T14:59:50;7.03;;;1.80;;
74577;SDS011;63173;49.086;33.418;2023-02-15T15:04:58;3.67;;;1.08;;
74577;SDS011;63173;49.086;33.418;2023-02-15T15:07:36;5.72;;;1.63;;
74577;SDS011;63173;49.086;33.418;2023-02-15T15:12:41;9.05;;;2.22;;
74577;SDS011;63173;49.086;33.418;2023-02-15T15:15:32;5.78;;;1.95;;
74577;SDS011;63173;49.086;33.418;2023-02-15T15:18:00;6.32;;;2.10;;
74577;SDS011;63173;49.086;33.418;2023-02-15T15:25:41;10.80;;;4.18;;
74577;SDS011;63173;49.086;33.418;2023-02-15T15:48:22;7.70;;;2.80;;
74577;SDS011;63173;49.086;33.418;2023-02-15T15:51:04;13.98;;;3.03;;
74577;SDS011;63173;49.086;33.418;2023-02-15T15:53:39;17.00;;;3.67;;
74577;SDS011;63173;49.086;33.418;2023-02-15T15:56:09;6.82;;;1.95;;
74577;SDS011;63173;49.086;33.418;2023-02-15T15:58:41;4.50;;;1.95;;
74577;SDS011;63173;49.086;33.418;2023-02-15T16:01:30;5.78;;;1.92;;
74577;SDS011;63173;49.086;33.418;2023-02-15T16:03:59;13.15;;;3.53;;
74577;SDS011;63173;49.086;33.418;2023-02-15T16:06:29;21.52;;;6.80;;
74577;SDS011;63173;49.086;33.418;2023-02-15T16:09:16;21.90;;;7.45;;
74577;SDS011;63173;49.086;33.418;2023-02-15T16:11:45;14.05;;;5.30;;
74577;SDS011;63173;49.086;33.418;2023-02-15T16:16:51;7.72;;;2.10;;
74577;SDS011;63173;49.086;33.418;2023-02-15T16:19:20;6.20;;;2.10;;
74577;SDS011;63173;49.086;33.418;2023-02-15T16:21:49;8.15;;;1.85;;
74577;SDS011;63173;49.086;33.418;2023-02-15T16:27:11;11.32;;;3.90;;
74577;SDS011;63173;49.086;33.418;2023-02-15T16:29:42;7.03;;;2.38;;
74577;SDS011;63173;49.086;33.418;2023-02-15T16:32:23;8.40;;;2.97;;
74577;SDS011;63173;49.086;33.418;2023-02-15T16:37:27;6.20;;;2.30;;
74577;SDS011;63173;49.086;33.418;2023-02-15T16:39:56;4.13;;;1.90;;
74577;SDS011;63173;49.086;33.418;2023-02-15T16:42:22;4.25;;;1.38;;
74577;SDS011;63173;49.086;33.418;2023-02-15T16:44:50;2.97;;;1.20;;
74577;SDS011;63173;49.086;33.418;2023-02-15T16:47:20;4.28;;;1.70;;
74577;SDS011;63173;49.086;33.418;2023-02-15T16:49:50;4.63;;;1.50;;
74577;SDS011;63173;49.086;33.418;2023-02-15T16:52:19;2.63;;;1.27;;
74577;SDS011;63173;49.086;33.418;2023-02-15T16:54:49;7.80;;;1.40;;
74577;SDS011;63173;49.086;33.418;2023-02-15T16:57:20;4.47;;;1.38;;
74577;SDS011;63173;49.086;33.418;2023-02-15T16:59:49;2.90;;;1.10;;
74577;SDS011;63173;49.086;33.418;2023-02-15T17:02:29;3.08;;;1.38;;
74577;SDS011;63173;49.086;33.418;2023-02-15T17:05:07;4.47;;;1.23;;
74577;SDS011;63173;49.086;33.418;2023-02-15T17:07:41;5.43;;;1.40;;
74577;SDS011;63173;49.086;33.418;2023-02-15T17:10:26;3.83;;;0.88;;
74577;SDS011;63173;49.086;33.418;2023-02-15T17:12:52;4.47;;;1.23;;
74577;SDS011;63173;49.086;33.418;2023-02-15T17:15:27;4.05;;;1.35;;
74577;SDS011;63173;49.086;33.418;2023-02-15T17:18:00;2.55;;;0.88;;
74577;SDS011;63173;49.086;33.418;2023-02-15T17:20:29;4.72;;;1.80;;
74577;SDS011;63173;49.086;33.418;2023-02-15T17:22:56;5.63;;;1.30;;
74577;SDS011;63173;49.086;33.418;2023-02-15T17:25:26;4.05;;;1.52;;
74577;SDS011;63173;49.086;33.418;2023-02-15T17:28:00;3.30;;;1.17;;
74577;SDS011;63173;49.086;33.418;2023-02-15T17:30:27;2.55;;;1.27;;
74577;SDS011;63173;49.086;33.418;2023-02-15T17:32:59;5.05;;;1.23;;
74577;SDS011;63173;49.086;33.418;2023-02-15T17:35:30;2.53;;;1.08;;
74577;SDS011;63173;49.086;33.418;2023-02-15T17:38:04;4.32;;;1.52;;
74577;SDS011;63173;49.086;33.418;2023-02-15T17:40:32;2.55;;;1.33;;
74577;SDS011;63173;49.086;33.418;2023-02-15T17:45:30;3.88;;;1.20;;
74577;SDS011;63173;49.086;33.418;2023-02-15T17:48:01;4.60;;;1.27;;
74577;SDS011;63173;49.086;33.418;2023-02-15T17:50:28;4.43;;;1.40;;
74577;SDS011;63173;49.086;33.418;2023-02-15T17:52:54;3.75;;;1.50;;
74577;SDS011;63173;49.086;33.418;2023-02-15T17:55:22;3.35;;;1.13;;
74577;SDS011;63173;49.086;33.418;2023-02-15T17:58:04;3.83;;;1.35;;
74577;SDS011;63173;49.086;33.418;2023-02-15T18:00:33;4.00;;;1.25;;
74577;SDS011;63173;49.086;33.418;2023-02-15T18:03:20;4.13;;;1.45;;
74577;SDS011;63173;49.086;33.418;2023-02-15T18:06:04;3.92;;;1.15;;
74577;SDS011;63173;49.086;33.418;2023-02-15T18:08:48;2.90;;;1.60;;
74577;SDS011;63173;49.086;33.418;2023-02-15T18:11:34;3.42;;;1.33;;
74577;SDS011;63173;49.086;33.418;2023-02-15T18:14:08;3.88;;;1.20;;
74577;SDS011;63173;49.086;33.418;2023-02-15T18:16:39;3.00;;;1.40;;